Aviation Digital Data Service (ADDS)

Output produced by METARs form (1420 UTC 12 December 2018)
found at http://www.aviationweather.gov/metar/data/
 
TAF LRTZ 121100Z 1212/1312 3512KT 9999 SCT020 BKN070 
     PROB30 
     TEMPO 1211/1215 6000 -RA BKN012 OVC050 
     BECMG 1216/1218 27008KT 4000 BR BKN007 
     PROB40 
     TEMPO 1302/1306 0500 FZFG OVC002
       
LRCK 121400Z 28009KT 9999 FEW048 01/00 Q1017 NOSIG
TAF LRCK 121100Z 1212/1312 29010KT 9999 SCT015 SCT035 
     TEMPO 1212/1221 5000 -RA BKN010 BKN030 
     PROB40 
     TEMPO 1217/1220 3000 -SHRASN BKN010 SCT030CB 
     BECMG 1221/1223 5000 BR BKN010 
     PROB30 
     TEMPO 1301/1307 0800 FZFG BKN002 
     BECMG 1307/1309 9999 SCT025
       
LRTC 121400Z 27011KT 9999 FEW018 03/01 Q1016
TAF LRTC 121100Z 1212/1221 28008KT 9999 SCT015 SCT045 
     TEMPO 1213/1221 5000 -RA BKN010 BKN040 
     PROB40 
     TEMPO 1217/1220 3000 -SHRASN BKN010 SCT030CB
       
TAF LRFT 121100Z 1212/1312 27010KT 6000 BKN030 OVC060 
     TEMPO 1212/1215 5000 RA BKN010 OVC030 
     BECMG 1216/1218 9999 BKN100
       
TAF LRBO 121100Z 1212/1312 25010KT 25010KT 9999 BKN070 
     BECMG 1216/1218 34008KT SCT100
       
LRBC 121400Z VRB01KT 9999 BKN065 03/M01 Q1016 R16/15//95
TAF LRBC 121100Z 1212/1221 VRB04KT 5000 BR BKN065
       
LRIA 121400Z 31007KT CAVOK 03/M02 Q1015 R14/19//95
TAF LRIA 121100Z 1212/1221 30010KT CAVOK
       
LRSV 121400Z 32007KT CAVOK 01/M04 Q1014
TAF LRSV 121100Z 1212/1221 31012KT CAVOK 
     BECMG 1218/1220 5000 BR BKN010
       
LROP 121400Z 20005KT 9999 SCT014 02/01 Q1017 R88/29//95 NOSIG
TAF LROP 121100Z 1212/1312 24008KT 9999 BKN010 BKN045 
     TEMPO 1213/1216 SCT015 SCT045 
     BECMG 1218/1220 5000 BR 
     TEMPO 1222/1306 1500 BR BKN005 
     BECMG 1307/1309 CAVOK
       
LRBS 121400Z 21004KT 160V250 9999 SCT013 SCT032 03/03 Q1017 R07/29//95 NOSIG
TAF LRBS 121100Z 1212/1312 24007KT 9999 BKN010 BKN045 
     TEMPO 1213/1216 SCT015 SCT045 
     BECMG 1218/1220 5000 BR 
     TEMPO 1222/1306 1500 BR BKN005 
     BECMG 1307/1309 CAVOK
       
LRCV 121400Z 26010KT 9999 FEW028 SCT035 BKN045 05/M00 Q1016 R09/19//95
TAF LRCV 121100Z 1212/1221 26008KT 9999 SCT015 
     PROB40 
     TEMPO 1212/1215 BKN010 
     TEMPO 1218/1221 3000 BR BKN010
       
LRSB 121400Z 16003KT 7000 BKN040 M01/M02 Q1015 R27/690194
TAF LRSB 121100Z 1212/1312 VRB03KT 5000 -SN BKN030 
     TEMPO 1212/1214 1500 SHSN BKN005 SCT025CB OVC030 
     BECMG 1214/1216 8000 NSW 
     BECMG 1217/1219 5000 BR BKN015 BKN030 
     TEMPO 1219/1303 3000 -SN BR BKN010 OVC025 
     BECMG 1305/1307 9999 NSW SCT020
       
LRAR 121400Z 31010KT 9999 FEW009 SCT012 BKN025 03/02 Q1018 R09/29//95
TAF LRAR 121100Z 1212/1221 29010KT 9999 BKN010 OVC020 
     TEMPO 1212/1215 5000 -RA BR 
     PROB30 
     TEMPO 1215/1218 5000 -RASN -SN BKN005 OVC015
       
LRCL 121400Z 09004KT 9999 BKN010 M00/M02 Q1016 R07/15//95
TAF LRCL 121100Z 1212/1221 08008KT 9999 SCT010 SCT040
       
LRTR 121400Z 29007KT 9999 OVC028 03/01 Q1018 R11/190095 NOSIG
TAF LRTR 121100Z 1212/1312 28008KT 9999 OVC025 
     PROB30 
     TEMPO 1213/1216 5000 -RA BR BKN015 OVC025 
     BECMG 1221/1223 5000 BR BKN010 
     TEMPO 1301/1306 1500 BR BKN005 
     BECMG 1306/1308 9999 NSW SCT025
       
LRTM 121400Z 25002KT 9999 SCT030 01/M02 Q1016 R07/19//95
TAF LRTM 121100Z 1212/1221 VRB04KT 9999 SCT015 SCT045
       
LRBM 121400Z 22005KT 9999 SCT043 03/M00 Q1017 R09/19//95
TAF LRBM 121100Z 1212/1221 VRB04KT 9999 BKN040
       
LRSM 121400Z 02004KT 9999 SCT022 03/M00 Q1017 R01/19//95
TAF LRSM 121100Z 1212/1221 VRB04KT CAVOK
       
LROD 121400Z 26003KT 4200 BR FEW005 BKN013 02/02 Q1018 R01/25//95
TAF LROD 121100Z 1212/1221 VRB04KT 9999 BKN010 OVC035 
     TEMPO 1212/1216 5000 -RA -RASN BKN005 OVC015
       
LRCT 121400Z VRB01KT 2000 BR BKN002 OVC015 M01/M01 Q1016 AMB AMB
TAF LRCT 121100Z 1212/1312 VRB03KT 3000 BR BKN002 OVC025 
     TEMPO 1212/1216 27006KT 1000 SN BR BKN002 OVC010